Time;durP1;ratioP1;P1;durP2;ratioP2;P2;SDS_P1;SDS_P2;PMS_P1;PMS_P2;Temp;Humidity;BMP_temperature;BMP_pressure;BME280_temperature;BME280_humidity;BME280_pressure;Samples;Min_cycle;Max_cycle;Signal;HPM_P1;HPM_P2
2024/02/29 00:01:08;;;;;;;;;;;;;;;;;;137311;1270;22487;-77
2024/02/29 00:04:18;;;;;;;;;;;;;;;;;;137479;1270;22508;-78
2024/02/29 00:07:19;;;;;;;;;;;;;;;;;;137542;1270;22525;-77
2024/02/29 00:10:20;;;;;;;;;;;;;;;;;;137208;1270;22614;-77
2024/02/29 00:13:21;;;;;;;;;;;;;;;;;;137275;1270;22530;-79
2024/02/29 00:16:23;;;;;;;;;;;;;;;;;;137671;1270;22504;-76
2024/02/29 00:19:24;;;;;;;;;;;;;;;;;;137084;1270;22600;-76
2024/02/29 00:22:25;;;;;;;;;;;;;;;;;;137231;1266;22520;-79
2024/02/29 00:25:26;;;;;;;;;;;;;;;;;;137814;1270;22537;-77
2024/02/29 00:28:27;;;;;;;;;;;;;;;;;;137171;1270;22563;-77
2024/02/29 00:31:28;;;;;;;;;;;;;;;;;;137230;1270;22497;-77
2024/02/29 00:34:29;;;;;;;;;;;;;;;;;;137624;1270;22503;-78
2024/02/29 00:37:30;;;;;;;;;;;;;;;;;;137240;1270;23002;-78
2024/02/29 00:40:32;;;;;;;;;;;;;;;;;;137211;1257;22940;-79
2024/02/29 00:43:33;;;;;;;;;;;;;;;;;;137438;1270;25383;-78
2024/02/29 00:46:34;;;;;;;;;;;;;;;;;;137476;1270;22551;-77
2024/02/29 00:49:35;;;;;;;;;;;;;;;;;;137242;1270;22519;-79
2024/02/29 00:52:36;;;;;;;;;;;;;;;;;;137262;1266;22518;-78
2024/02/29 00:55:37;;;;;;;;;;;;;;;;;;137582;1270;23078;-77
2024/02/29 00:58:39;;;;;;;;;;;;;;;;;;137233;1270;23211;-77
2024/02/29 01:01:40;;;;;;;;;;;;;;;;;;137248;1270;23022;-78
2024/02/29 01:04:41;;;;;;;;;;;;;;;;;;137805;1270;22512;-76
2024/02/29 01:07:42;;;;;;;;;;;;;;;;;;137845;1270;22344;-76
2024/02/29 01:10:43;;;;;;;;;;;;;;;;;;137887;1266;22786;-77
2024/02/29 01:13:44;;;;;;;;;;;;;;;;;;138901;1264;22490;-77
2024/02/29 01:16:56;;;;;;;;;;;;;;;;;;138515;1264;22953;-76
2024/02/29 01:19:57;;;;;;;;;;;;;;;;;;138761;1258;22492;-76
2024/02/29 01:22:58;;;;;;;;;;;;;;;;;;138445;1264;22517;-78
2024/02/29 01:25:59;;;;;;;;;;;;;;;;;;138775;1264;22499;-77
2024/02/29 01:29:00;;;;;;;;;;;;;;;;;;138342;1264;22502;-77
2024/02/29 01:32:01;;;;;;;;;;;;;;;;;;138141;1264;25891;-77
2024/02/29 01:35:02;;;;;;;;;;;;;;;;;;138954;1264;22538;-77
2024/02/29 01:38:04;;;;;;;;;;;;;;;;;;138228;1264;22551;-78
2024/02/29 01:41:05;;;;;;;;;;;;;;;;;;138379;1253;22543;-78
2024/02/29 01:44:06;;;;;;;;;;;;;;;;;;138843;1264;22644;-79
2024/02/29 01:47:09;;;;;;;;;;;;;;;;;;138481;1264;22524;-78
2024/02/29 01:50:10;;;;;;;;;;;;;;;;;;138316;1264;22540;-80
2024/02/29 01:53:12;;;;;;;;;;;;;;;;;;138593;1263;22508;-79
2024/02/29 01:56:13;;;;;;;;;;;;;;;;;;138616;1264;22501;-77
2024/02/29 01:59:14;;;;;;;;;;;;;;;;;;138267;1264;23097;-78
2024/02/29 02:02:15;;;;;;;;;;;;;;;;;;138422;1264;22504;-79
2024/02/29 02:05:16;;;;;;;;;;;;;;;;;;138763;1264;23044;-78
2024/02/29 02:08:17;;;;;;;;;;;;;;;;;;138354;1264;22495;-78
2024/02/29 02:11:18;;;;;;;;;;;;;;;;;;138356;1264;22876;-77
2024/02/29 02:14:19;;;;;;;;;;;;;;;;;;138955;1264;22485;-78
2024/02/29 02:17:21;;;;;;;;;;;;;;;;;;138234;1264;22508;-78
2024/02/29 02:20:23;;;;;;;;;;;;;;;;;;138361;1264;22521;-78
2024/02/29 02:23:24;;;;;;;;;;;;;;;;;;138799;1265;22573;-77
2024/02/29 02:26:26;;;;;;;;;;;;;;;;;;138371;1264;22527;-76
2024/02/29 02:29:27;;;;;;;;;;;;;;;;;;138257;1264;22479;-78
2024/02/29 02:32:28;;;;;;;;;;;;;;;;;;138578;1264;22607;-78
2024/02/29 02:35:29;;;;;;;;;;;;;;;;;;138532;1265;22506;-78
2024/02/29 02:38:34;;;;;;;;;;;;;;;;;;138307;1264;22491;-78
2024/02/29 02:41:35;;;;;;;;;;;;;;;;;;138422;1264;22497;-80
2024/02/29 02:44:39;;;;;;;;;;;;;;;;;;138896;1264;22483;-76
2024/02/29 02:47:40;;;;;;;;;;;;;;;;;;138356;1264;22522;-78
2024/02/29 02:50:41;;;;;;;;;;;;;;;;;;138137;1264;22526;-77
2024/02/29 02:53:42;;;;;;;;;;;;;;;;;;138880;1264;22537;-78
2024/02/29 02:56:46;;;;;;;;;;;;;;;;;;138259;1264;22555;-76
2024/02/29 02:59:47;;;;;;;;;;;;;;;;;;138381;1264;22492;-76
2024/02/29 03:02:48;;;;;;;;;;;;;;;;;;138624;1262;22547;-78
2024/02/29 03:05:49;;;;;;;;;;;;;;;;;;138677;1264;22544;-76
2024/02/29 03:08:53;;;;;;;;;;;;;;;;;;138464;1265;23008;-77
2024/02/29 03:11:54;;;;;;;;;;;;;;;;;;138800;1264;22550;-78
2024/02/29 03:14:55;;;;;;;;;;;;;;;;;;139071;1264;22483;-77
2024/02/29 03:17:57;;;;;;;;;;;;;;;;;;138452;1262;22491;-78
2024/02/29 03:21:03;;;;;;;;;;;;;;;;;;138308;1264;22539;-76
2024/02/29 03:24:04;;;;;;;;;;;;;;;;;;138963;1264;22523;-77
2024/02/29 03:27:05;;;;;;;;;;;;;;;;;;138324;1264;22526;-76
2024/02/29 03:30:06;;;;;;;;;;;;;;;;;;138389;1261;22489;-76
2024/02/29 03:33:07;;;;;;;;;;;;;;;;;;138554;1264;22509;-75
2024/02/29 03:36:08;;;;;;;;;;;;;;;;;;138540;1264;22842;-75
2024/02/29 03:39:10;;;;;;;;;;;;;;;;;;138233;1264;22608;-78
2024/02/29 03:42:11;;;;;;;;;;;;;;;;;;138438;1250;22504;-77
2024/02/29 03:45:12;;;;;;;;;;;;;;;;;;138710;1264;22504;-76
2024/02/29 03:48:13;;;;;;;;;;;;;;;;;;138224;1264;22487;-77
2024/02/29 03:51:16;;;;;;;;;;;;;;;;;;138329;1264;24368;-78
2024/02/29 03:54:17;;;;;;;;;;;;;;;;;;138889;1264;22497;-77
2024/02/29 03:57:21;;;;;;;;;;;;;;;;;;138369;1264;22947;-77
2024/02/29 04:00:22;;;;;;;;;;;;;;;;;;138366;1264;22619;-78
2024/02/29 04:03:23;;;;;;;;;;;;;;;;;;138834;1264;22524;-79
2024/02/29 04:06:24;;;;;;;;;;;;;;;;;;138420;1265;22528;-78
2024/02/29 04:09:25;;;;;;;;;;;;;;;;;;138234;1264;22546;-77
2024/02/29 04:12:26;;;;;;;;;;;;;;;;;;138940;1258;22468;-77
2024/02/29 04:15:28;;;;;;;;;;;;;;;;;;138690;1265;22495;-78
2024/02/29 04:18:29;;;;;;;;;;;;;;;;;;138250;1264;22618;-77
2024/02/29 04:21:30;;;;;;;;;;;;;;;;;;138417;1264;25341;-79
2024/02/29 04:24:33;;;;;;;;;;;;;;;;;;138920;1264;22514;-78
2024/02/29 04:27:34;;;;;;;;;;;;;;;;;;138330;1264;22674;-79
2024/02/29 04:30:35;;;;;;;;;;;;;;;;;;138369;1264;22521;-76
2024/02/29 04:33:36;;;;;;;;;;;;;;;;;;138958;1264;22276;-78
2024/02/29 04:36:37;;;;;;;;;;;;;;;;;;138980;1264;22417;-76
2024/02/29 04:39:38;;;;;;;;;;;;;;;;;;138239;1264;22532;-77
2024/02/29 04:42:40;;;;;;;;;;;;;;;;;;138910;1264;22950;-78
2024/02/29 04:45:41;;;;;;;;;;;;;;;;;;138925;1265;22792;-77
2024/02/29 04:48:42;;;;;;;;;;;;;;;;;;138950;1264;22750;-77
2024/02/29 04:51:43;;;;;;;;;;;;;;;;;;138953;1264;22324;-76
2024/02/29 04:54:44;;;;;;;;;;;;;;;;;;138895;1265;22331;-77
2024/02/29 04:57:45;;;;;;;;;;;;;;;;;;138903;1265;22326;-77
2024/02/29 05:00:50;;;;;;;;;;;;;;;;;;138925;1264;22402;-77
2024/02/29 05:03:51;;;;;;;;;;;;;;;;;;138876;1265;22912;-76
2024/02/29 05:06:53;;;;;;;;;;;;;;;;;;138952;1265;22785;-76
2024/02/29 05:09:54;;;;;;;;;;;;;;;;;;138918;1264;22277;-78
2024/02/29 05:12:55;;;;;;;;;;;;;;;;;;138879;1264;22316;-77
2024/02/29 05:15:56;;;;;;;;;;;;;;;;;;138903;1265;22255;-77
2024/02/29 05:18:58;;;;;;;;;;;;;;;;;;138918;1265;22262;-77
2024/02/29 05:21:59;;;;;;;;;;;;;;;;;;138870;1262;22268;-77
2024/02/29 05:25:00;;;;;;;;;;;;;;;;;;138841;1265;22273;-77
2024/02/29 05:28:01;;;;;;;;;;;;;;;;;;138823;1263;22370;-77
2024/02/29 05:31:03;;;;;;;;;;;;;;;;;;138801;1264;22337;-76
2024/02/29 05:34:04;;;;;;;;;;;;;;;;;;138779;1265;22407;-79
2024/02/29 05:37:06;;;;;;;;;;;;;;;;;;138824;1265;22343;-76
2024/02/29 05:40:07;;;;;;;;;;;;;;;;;;138811;1265;22469;-76
2024/02/29 05:43:08;;;;;;;;;;;;;;;;;;138780;1265;22319;-76
2024/02/29 05:46:09;;;;;;;;;;;;;;;;;;138827;1265;22312;-77
2024/02/29 05:49:10;;;;;;;;;;;;;;;;;;138845;1265;22394;-79
2024/02/29 05:52:12;;;;;;;;;;;;;;;;;;138830;1264;22296;-79
2024/02/29 05:55:13;;;;;;;;;;;;;;;;;;138860;1264;22312;-80
2024/02/29 05:58:14;;;;;;;;;;;;;;;;;;138841;1264;22668;-79
2024/02/29 06:01:15;;;;;;;;;;;;;;;;;;138789;1265;22698;-80
2024/02/29 06:04:17;;;;;;;;;;;;;;;;;;138783;1261;22489;-80
2024/02/29 06:07:18;;;;;;;;;;;;;;;;;;138369;1264;22520;-81
2024/02/29 06:10:19;;;;;;;;;;;;;;;;;;138233;1265;22536;-81
2024/02/29 06:13:20;;;;;;;;;;;;;;;;;;138658;1265;22537;-76
2024/02/29 06:16:21;;;;;;;;;;;;;;;;;;139326;1265;22310;-78
2024/02/29 06:19:23;;;;;;;;;;;;;;;;;;139372;1265;22250;-78
2024/02/29 06:22:24;;;;;;;;;;;;;;;;;;139299;1265;22474;-78
2024/02/29 06:25:25;;;;;;;;;;;;;;;;;;139308;1265;22336;-79
2024/02/29 06:28:28;;;;;;;;;;;;;;;;;;139212;1264;22314;-78
2024/02/29 06:31:31;;;;;;;;;;;;;;;;;;139176;1264;22408;-79
2024/02/29 06:34:32;;;;;;;;;;;;;;;;;;138856;1264;22352;-79
2024/02/29 06:37:34;;;;;;;;;;;;;;;;;;138882;1264;22368;-78
2024/02/29 06:40:36;;;;;;;;;;;;;;;;;;138911;1264;22292;-79
2024/02/29 06:43:37;;;;;;;;;;;;;;;;;;138851;1264;22259;-79
2024/02/29 06:46:38;;;;;;;;;;;;;;;;;;138868;1264;22416;-79
2024/02/29 06:49:40;;;;;;;;;;;;;;;;;;138858;1264;22378;-79
2024/02/29 06:52:44;;;;;;;;;;;;;;;;;;138856;1265;22308;-79
2024/02/29 06:55:45;;;;;;;;;;;;;;;;;;138926;1264;22325;-79
2024/02/29 06:58:46;;;;;;;;;;;;;;;;;;138893;1265;22380;-80
2024/02/29 07:01:47;;;;;;;;;;;;;;;;;;138870;1265;22821;-79
2024/02/29 07:04:48;;;;;;;;;;;;;;;;;;138931;1264;23249;-79
2024/02/29 07:07:52;;;;;;;;;;;;;;;;;;138306;1265;22501;-78
2024/02/29 07:10:53;;;;;;;;;;;;;;;;;;138624;1265;22511;-79
2024/02/29 07:13:55;;;;;;;;;;;;;;;;;;138671;1264;22560;-79
2024/02/29 07:16:56;;;;;;;;;;;;;;;;;;138911;1265;22317;-79
2024/02/29 07:19:58;;;;;;;;;;;;;;;;;;138891;1263;22296;-80
2024/02/29 07:22:59;;;;;;;;;;;;;;;;;;138880;1265;22308;-80
2024/02/29 07:26:03;;;;;;;;;;;;;;;;;;138928;1264;22376;-79
2024/02/29 07:29:04;;;;;;;;;;;;;;;;;;138935;1265;22844;-79
2024/02/29 07:32:05;;;;;;;;;;;;;;;;;;138919;1264;22333;-80
2024/02/29 07:35:07;;;;;;;;;;;;;;;;;;138955;1264;22334;-79
2024/02/29 07:38:08;;;;;;;;;;;;;;;;;;138927;1264;22408;-79
2024/02/29 07:41:09;;;;;;;;;;;;;;;;;;138938;1253;22259;-80
2024/02/29 07:44:10;;;;;;;;;;;;;;;;;;138668;1265;22951;-82
2024/02/29 07:47:11;;;;;;;;;;;;;;;;;;138889;1264;22319;-78
2024/02/29 07:50:14;;;;;;;;;;;;;;;;;;138929;1265;22313;-76
2024/02/29 07:53:15;;;;;;;;;;;;;;;;;;138847;1264;22693;-78
2024/02/29 07:56:17;;;;;;;;;;;;;;;;;;138912;1265;22313;-77
2024/02/29 07:59:18;;;;;;;;;;;;;;;;;;138876;1264;22404;-77
2024/02/29 08:02:19;;;;;;;;;;;;;;;;;;138860;1261;22277;-77
2024/02/29 08:05:20;;;;;;;;;;;;;;;;;;138847;1265;22267;-77
2024/02/29 08:08:22;;;;;;;;;;;;;;;;;;138911;1265;22690;-77
2024/02/29 08:11:25;;;;;;;;;;;;;;;;;;138916;1265;22312;-77
2024/02/29 08:14:27;;;;;;;;;;;;;;;;;;138927;1264;22313;-76
2024/02/29 08:17:28;;;;;;;;;;;;;;;;;;138958;1260;23218;-78
2024/02/29 08:20:29;;;;;;;;;;;;;;;;;;138918;1265;22314;-79
2024/02/29 08:23:30;;;;;;;;;;;;;;;;;;138941;1264;22354;-79
2024/02/29 08:26:32;;;;;;;;;;;;;;;;;;138954;1265;22288;-80
2024/02/29 08:29:33;;;;;;;;;;;;;;;;;;138919;1264;22420;-80
2024/02/29 08:32:34;;;;;;;;;;;;;;;;;;138929;1264;22318;-80
2024/02/29 08:35:35;;;;;;;;;;;;;;;;;;138957;1264;22315;-80
2024/02/29 08:38:37;;;;;;;;;;;;;;;;;;138924;1251;22290;-79
2024/02/29 08:41:38;;;;;;;;;;;;;;;;;;138893;1264;22355;-80
2024/02/29 08:44:40;;;;;;;;;;;;;;;;;;138861;1265;22324;-81
2024/02/29 08:47:41;;;;;;;;;;;;;;;;;;138929;1264;22411;-79
2024/02/29 08:50:42;;;;;;;;;;;;;;;;;;138952;1265;22313;-79
2024/02/29 08:53:43;;;;;;;;;;;;;;;;;;138966;1265;22313;-80
2024/02/29 08:56:45;;;;;;;;;;;;;;;;;;138935;1265;22904;-80
2024/02/29 08:59:46;;;;;;;;;;;;;;;;;;138907;1265;22369;-80
2024/02/29 09:02:47;;;;;;;;;;;;;;;;;;138929;1265;22933;-79
2024/02/29 09:05:48;;;;;;;;;;;;;;;;;;138946;1265;23005;-78
2024/02/29 09:08:49;;;;;;;;;;;;;;;;;;138891;1264;22339;-79
2024/02/29 09:11:50;;;;;;;;;;;;;;;;;;138861;1265;22343;-80
2024/02/29 09:14:51;;;;;;;;;;;;;;;;;;138131;1264;22496;-79
2024/02/29 09:17:52;;;;;;;;;;;;;;;;;;138922;1265;22332;-78
2024/02/29 09:20:53;;;;;;;;;;;;;;;;;;138883;1265;22355;-80
2024/02/29 09:23:55;;;;;;;;;;;;;;;;;;138904;1265;22306;-79
2024/02/29 09:26:56;;;;;;;;;;;;;;;;;;139170;1265;22388;-79
2024/02/29 09:29:57;;;;;;;;;;;;;;;;;;139167;1262;22394;-78
2024/02/29 09:32:58;;;;;;;;;;;;;;;;;;139203;1265;22306;-79
2024/02/29 09:35:59;;;;;;;;;;;;;;;;;;139068;1265;22365;-79
2024/02/29 09:39:01;;;;;;;;;;;;;;;;;;138342;1265;23129;-80
2024/02/29 09:42:03;;;;;;;;;;;;;;;;;;138592;1265;280569;-79
2024/02/29 09:45:04;;;;;;;;;;;;;;;;;;138925;1265;22337;-80
2024/02/29 09:48:05;;;;;;;;;;;;;;;;;;138971;1264;22741;-79
2024/02/29 09:51:06;;;;;;;;;;;;;;;;;;138958;1265;22312;-79
2024/02/29 09:54:07;;;;;;;;;;;;;;;;;;138280;1265;22478;-79
2024/02/29 09:57:09;;;;;;;;;;;;;;;;;;138485;1265;23052;-78
2024/02/29 10:00:10;;;;;;;;;;;;;;;;;;138951;1265;22967;-80
2024/02/29 10:03:11;;;;;;;;;;;;;;;;;;138928;1253;22343;-79
2024/02/29 10:06:12;;;;;;;;;;;;;;;;;;138956;1265;22267;-80
2024/02/29 10:09:14;;;;;;;;;;;;;;;;;;138370;1265;22510;-80
2024/02/29 10:12:15;;;;;;;;;;;;;;;;;;138405;1265;22547;-80
2024/02/29 10:15:16;;;;;;;;;;;;;;;;;;138902;1265;22350;-79
2024/02/29 10:18:17;;;;;;;;;;;;;;;;;;138851;1265;22978;-79
2024/02/29 10:21:18;;;;;;;;;;;;;;;;;;138864;1265;22410;-78
2024/02/29 10:24:19;;;;;;;;;;;;;;;;;;138358;1265;22477;-79
2024/02/29 10:27:22;;;;;;;;;;;;;;;;;;138796;1265;22391;-78
2024/02/29 10:30:23;;;;;;;;;;;;;;;;;;138796;1265;22373;-79
2024/02/29 10:33:24;;;;;;;;;;;;;;;;;;138816;1264;22332;-80
2024/02/29 10:36:25;;;;;;;;;;;;;;;;;;138812;1265;22351;-80
2024/02/29 10:39:27;;;;;;;;;;;;;;;;;;138872;1265;22322;-80
2024/02/29 10:42:35;;;;;;;;;;;;;;;;;;138840;1265;22265;-80
2024/02/29 10:45:36;;;;;;;;;;;;;;;;;;138892;1265;22342;-79
2024/02/29 10:48:37;;;;;;;;;;;;;;;;;;138866;1265;22310;-79
2024/02/29 10:51:39;;;;;;;;;;;;;;;;;;138917;1265;22378;-79
2024/02/29 10:54:40;;;;;;;;;;;;;;;;;;138905;1264;22344;-78
2024/02/29 10:57:41;;;;;;;;;;;;;;;;;;138844;1264;22487;-78
2024/02/29 11:00:42;;;;;;;;;;;;;;;;;;138877;1264;22534;-76
2024/02/29 11:03:43;;;;;;;;;;;;;;;;;;138879;1264;22358;-79
2024/02/29 11:06:45;;;;;;;;;;;;;;;;;;138910;1265;22354;-78
2024/02/29 11:09:47;;;;;;;;;;;;;;;;;;138883;1264;22378;-79
2024/02/29 11:12:49;;;;;;;;;;;;;;;;;;138866;1265;22329;-78
2024/02/29 11:15:50;;;;;;;;;;;;;;;;;;138893;1264;22305;-80
2024/02/29 11:18:51;;;;;;;;;;;;;;;;;;138928;1264;22306;-80
2024/02/29 11:21:53;;;;;;;;;;;;;;;;;;138880;1264;22358;-79
2024/02/29 11:24:54;;;;;;;;;;;;;;;;;;138995;1264;22259;-80
2024/02/29 11:27:55;;;;;;;;;;;;;;;;;;139001;1257;22386;-80
2024/02/29 11:30:56;;;;;;;;;;;;;;;;;;138971;1264;22406;-80
2024/02/29 11:33:58;;;;;;;;;;;;;;;;;;139033;1264;22313;-79
2024/02/29 11:36:59;;;;;;;;;;;;;;;;;;139017;1264;22296;-80
2024/02/29 11:40:00;;;;;;;;;;;;;;;;;;138919;1264;22723;-79
2024/02/29 11:43:01;;;;;;;;;;;;;;;;;;138909;1264;22269;-80
2024/02/29 11:46:03;;;;;;;;;;;;;;;;;;138949;1264;22689;-82
2024/02/29 11:49:04;;;;;;;;;;;;;;;;;;138932;1264;22263;-81
2024/02/29 11:52:05;;;;;;;;;;;;;;;;;;138921;1264;22329;-79
2024/02/29 11:55:06;;;;;;;;;;;;;;;;;;138928;1264;22311;-80
2024/02/29 11:58:07;;;;;;;;;;;;;;;;;;138889;1264;22323;-78
2024/02/29 12:01:11;;;;;;;;;;;;;;;;;;138878;1264;23026;-78
2024/02/29 12:04:12;;;;;;;;;;;;;;;;;;138851;1264;22328;-79
2024/02/29 12:07:13;;;;;;;;;;;;;;;;;;138888;1264;22303;-79
2024/02/29 12:10:15;;;;;;;;;;;;;;;;;;138845;1264;22319;-78
2024/02/29 12:13:16;;;;;;;;;;;;;;;;;;138890;1264;22353;-78
2024/02/29 12:16:17;;;;;;;;;;;;;;;;;;138934;1264;22392;-79
2024/02/29 12:19:18;;;;;;;;;;;;;;;;;;138905;1264;22350;-79
2024/02/29 12:22:19;;;;;;;;;;;;;;;;;;138945;1264;22403;-79
2024/02/29 12:25:21;;;;;;;;;;;;;;;;;;138043;1264;22475;-78
2024/02/29 12:28:22;;;;;;;;;;;;;;;;;;138900;1264;22240;-79
2024/02/29 12:31:23;;;;;;;;;;;;;;;;;;138555;1264;23029;-79
2024/02/29 12:34:24;;;;;;;;;;;;;;;;;;138576;1264;22625;-79
2024/02/29 12:37:25;;;;;;;;;;;;;;;;;;138820;1264;25443;-79
2024/02/29 12:40:29;;;;;;;;;;;;;;;;;;139223;1264;22480;-77
2024/02/29 12:43:30;;;;;;;;;;;;;;;;;;138665;1264;22845;-76
2024/02/29 12:46:31;;;;;;;;;;;;;;;;;;139285;1264;22318;-78
2024/02/29 12:49:32;;;;;;;;;;;;;;;;;;139258;1264;22350;-79
2024/02/29 12:52:33;;;;;;;;;;;;;;;;;;139047;1264;22311;-78
2024/02/29 12:55:35;;;;;;;;;;;;;;;;;;138913;1264;22307;-79
2024/02/29 12:58:37;;;;;;;;;;;;;;;;;;138858;1249;22386;-79
2024/02/29 13:01:41;;;;;;;;;;;;;;;;;;139012;1264;22383;-79
2024/02/29 13:04:42;;;;;;;;;;;;;;;;;;138944;1264;22454;-79
2024/02/29 13:07:43;;;;;;;;;;;;;;;;;;138820;1247;22398;-79
2024/02/29 13:10:47;;;;;;;;;;;;;;;;;;138895;1264;22745;-79
2024/02/29 13:13:48;;;;;;;;;;;;;;;;;;138945;1264;23176;-78
2024/02/29 13:16:51;;;;;;;;;;;;;;;;;;138871;1264;22415;-80
2024/02/29 13:19:53;;;;;;;;;;;;;;;;;;138849;1264;22738;-81
2024/02/29 13:22:54;;;;;;;;;;;;;;;;;;138841;1264;22357;-79
2024/02/29 13:25:55;;;;;;;;;;;;;;;;;;138865;1264;22346;-77
2024/02/29 13:28:56;;;;;;;;;;;;;;;;;;138793;1264;22508;-81
2024/02/29 13:31:57;;;;;;;;;;;;;;;;;;138787;1264;22339;-80
2024/02/29 13:34:58;;;;;;;;;;;;;;;;;;138832;1264;22710;-80
2024/02/29 13:37:59;;;;;;;;;;;;;;;;;;138853;1250;22457;-80
2024/02/29 13:41:01;;;;;;;;;;;;;;;;;;138882;1264;22269;-80
2024/02/29 13:44:02;;;;;;;;;;;;;;;;;;138773;1264;22434;-80
2024/02/29 13:47:04;;;;;;;;;;;;;;;;;;138934;1264;22384;-79
2024/02/29 13:50:06;;;;;;;;;;;;;;;;;;138913;1244;22301;-80
2024/02/29 13:53:07;;;;;;;;;;;;;;;;;;138877;1264;22291;-78
2024/02/29 13:56:08;;;;;;;;;;;;;;;;;;138877;1264;22337;-79
2024/02/29 13:59:09;;;;;;;;;;;;;;;;;;138865;1264;22524;-79
2024/02/29 14:02:10;;;;;;;;;;;;;;;;;;138914;1264;23152;-79
2024/02/29 14:05:11;;;;;;;;;;;;;;;;;;138942;1260;22336;-80
2024/02/29 14:08:13;;;;;;;;;;;;;;;;;;138851;1259;22363;-81
2024/02/29 14:11:14;;;;;;;;;;;;;;;;;;138900;1253;22280;-79
2024/02/29 14:14:15;;;;;;;;;;;;;;;;;;138918;1264;22877;-78
2024/02/29 14:17:16;;;;;;;;;;;;;;;;;;138936;1264;22300;-81
2024/02/29 14:20:17;;;;;;;;;;;;;;;;;;138888;1264;22259;-78
2024/02/29 14:23:19;;;;;;;;;;;;;;;;;;138940;1264;22260;-78
2024/02/29 14:26:20;;;;;;;;;;;;;;;;;;138876;1264;22327;-80
2024/02/29 14:29:21;;;;;;;;;;;;;;;;;;138866;1259;22488;-79
2024/02/29 14:32:22;;;;;;;;;;;;;;;;;;138877;1264;22372;-79
2024/02/29 14:35:23;;;;;;;;;;;;;;;;;;138892;1260;22302;-80
2024/02/29 14:38:24;;;;;;;;;;;;;;;;;;138898;1264;22621;-80
2024/02/29 14:41:26;;;;;;;;;;;;;;;;;;138933;1264;22322;-80
2024/02/29 14:44:28;;;;;;;;;;;;;;;;;;138970;1264;22313;-81
2024/02/29 14:47:29;;;;;;;;;;;;;;;;;;138973;1264;22304;-81
2024/02/29 14:50:30;;;;;;;;;;;;;;;;;;138940;1264;22313;-79
2024/02/29 14:53:31;;;;;;;;;;;;;;;;;;138976;1264;22321;-80
2024/02/29 14:56:32;;;;;;;;;;;;;;;;;;138991;1264;22273;-80
2024/02/29 14:59:33;;;;;;;;;;;;;;;;;;138998;1264;22406;-79
2024/02/29 15:02:34;;;;;;;;;;;;;;;;;;138866;1264;22516;-79
2024/02/29 15:05:36;;;;;;;;;;;;;;;;;;138976;1264;22333;-81
2024/02/29 15:08:37;;;;;;;;;;;;;;;;;;138880;1264;22499;-80
2024/02/29 15:11:38;;;;;;;;;;;;;;;;;;138942;1264;22567;-80
2024/02/29 15:14:39;;;;;;;;;;;;;;;;;;138976;1264;22404;-78
2024/02/29 15:17:41;;;;;;;;;;;;;;;;;;139001;1264;22337;-78
2024/02/29 15:20:42;;;;;;;;;;;;;;;;;;138644;1264;22510;-79
2024/02/29 15:23:43;;;;;;;;;;;;;;;;;;139012;1264;22638;-78
2024/02/29 15:26:44;;;;;;;;;;;;;;;;;;138992;1264;22409;-80
2024/02/29 15:29:48;;;;;;;;;;;;;;;;;;138976;1264;22743;-79
2024/02/29 15:32:50;;;;;;;;;;;;;;;;;;138209;1264;22484;-78
2024/02/29 15:35:51;;;;;;;;;;;;;;;;;;138917;1264;22384;-79
2024/02/29 15:38:54;;;;;;;;;;;;;;;;;;138977;1264;22720;-80
2024/02/29 15:41:55;;;;;;;;;;;;;;;;;;138280;1260;22485;-79
2024/02/29 15:44:56;;;;;;;;;;;;;;;;;;138274;1264;22959;-79
2024/02/29 15:47:57;;;;;;;;;;;;;;;;;;138933;1264;22370;-78
2024/02/29 15:50:59;;;;;;;;;;;;;;;;;;139298;1264;22324;-76
2024/02/29 15:54:00;;;;;;;;;;;;;;;;;;138584;1253;22548;-78
2024/02/29 15:57:01;;;;;;;;;;;;;;;;;;139042;1264;22484;-80
2024/02/29 16:00:02;;;;;;;;;;;;;;;;;;138973;1264;22488;-78
2024/02/29 16:03:06;;;;;;;;;;;;;;;;;;138762;1257;22493;-80
2024/02/29 16:06:08;;;;;;;;;;;;;;;;;;138745;1264;23216;-80
2024/02/29 16:09:11;;;;;;;;;;;;;;;;;;138601;1264;22518;-80
2024/02/29 16:12:12;;;;;;;;;;;;;;;;;;138317;1264;22541;-80
2024/02/29 16:15:14;;;;;;;;;;;;;;;;;;138575;1264;22495;-80
2024/02/29 16:18:16;;;;;;;;;;;;;;;;;;138835;1264;23242;-80
2024/02/29 16:21:17;;;;;;;;;;;;;;;;;;138342;1264;22540;-78
2024/02/29 16:24:18;;;;;;;;;;;;;;;;;;138950;1264;22521;-79
2024/02/29 16:27:19;;;;;;;;;;;;;;;;;;139014;1264;22313;-80
2024/02/29 16:30:20;;;;;;;;;;;;;;;;;;138238;1264;23005;-79
2024/02/29 16:33:21;;;;;;;;;;;;;;;;;;138979;1264;22282;-79
2024/02/29 16:36:22;;;;;;;;;;;;;;;;;;138961;1264;22307;-79
2024/02/29 16:39:24;;;;;;;;;;;;;;;;;;138934;1264;22281;-79
2024/02/29 16:42:26;;;;;;;;;;;;;;;;;;138966;1264;22341;-80
2024/02/29 16:45:27;;;;;;;;;;;;;;;;;;138536;1264;22505;-78
2024/02/29 16:48:28;;;;;;;;;;;;;;;;;;138706;1264;22927;-80
2024/02/29 16:51:29;;;;;;;;;;;;;;;;;;138257;1264;22479;-78
2024/02/29 16:54:30;;;;;;;;;;;;;;;;;;138499;1264;22497;-79
2024/02/29 16:57:31;;;;;;;;;;;;;;;;;;138894;1264;22586;-79
2024/02/29 17:00:32;;;;;;;;;;;;;;;;;;139021;1264;22383;-79
2024/02/29 17:03:33;;;;;;;;;;;;;;;;;;138399;1264;22924;-80
2024/02/29 17:06:35;;;;;;;;;;;;;;;;;;139017;1264;22703;-80
2024/02/29 17:09:36;;;;;;;;;;;;;;;;;;138464;1264;22492;-79
2024/02/29 17:12:37;;;;;;;;;;;;;;;;;;138402;1264;22492;-79
2024/02/29 17:15:38;;;;;;;;;;;;;;;;;;138683;1264;22543;-80
2024/02/29 17:18:39;;;;;;;;;;;;;;;;;;138625;1264;22936;-79
2024/02/29 17:21:40;;;;;;;;;;;;;;;;;;138151;1264;22482;-80
2024/02/29 17:24:43;;;;;;;;;;;;;;;;;;138526;1264;22504;-80
2024/02/29 17:27:44;;;;;;;;;;;;;;;;;;138818;1264;22504;-80
2024/02/29 17:30:45;;;;;;;;;;;;;;;;;;138379;1260;22499;-81
2024/02/29 17:33:47;;;;;;;;;;;;;;;;;;138216;1264;22532;-80
2024/02/29 17:36:50;;;;;;;;;;;;;;;;;;138989;1264;22509;-82
2024/02/29 17:39:51;;;;;;;;;;;;;;;;;;138381;1264;22973;-83
2024/02/29 17:42:52;;;;;;;;;;;;;;;;;;138470;1264;22514;-83
2024/02/29 17:45:53;;;;;;;;;;;;;;;;;;138955;1264;22281;-77
2024/02/29 17:48:55;;;;;;;;;;;;;;;;;;138493;1264;22935;-82
2024/02/29 17:51:56;;;;;;;;;;;;;;;;;;138997;1264;22571;-83
2024/02/29 17:54:57;;;;;;;;;;;;;;;;;;139006;1264;22308;-83
2024/02/29 17:57:58;;;;;;;;;;;;;;;;;;139067;1264;22305;-83
2024/02/29 18:01:02;;;;;;;;;;;;;;;;;;139068;1264;22407;-82
2024/02/29 18:04:03;;;;;;;;;;;;;;;;;;138503;1264;22511;-81
2024/02/29 18:07:04;;;;;;;;;;;;;;;;;;138856;1264;22482;-80
2024/02/29 18:10:06;;;;;;;;;;;;;;;;;;138955;1264;22326;-81
2024/02/29 18:13:07;;;;;;;;;;;;;;;;;;138594;1264;22618;-83
2024/02/29 18:16:08;;;;;;;;;;;;;;;;;;138954;1261;22479;-83
2024/02/29 18:19:09;;;;;;;;;;;;;;;;;;138475;1264;22475;-83
2024/02/29 18:22:11;;;;;;;;;;;;;;;;;;138407;1264;22520;-83
2024/02/29 18:25:12;;;;;;;;;;;;;;;;;;138978;1264;22786;-84
2024/02/29 18:28:14;;;;;;;;;;;;;;;;;;138756;1264;22496;-85
2024/02/29 18:31:15;;;;;;;;;;;;;;;;;;138353;1264;22944;-84
2024/02/29 18:34:16;;;;;;;;;;;;;;;;;;138665;1264;22512;-85
2024/02/29 18:37:17;;;;;;;;;;;;;;;;;;138574;1264;22497;-82
2024/02/29 18:40:21;;;;;;;;;;;;;;;;;;138228;1264;22538;-81
2024/02/29 18:43:22;;;;;;;;;;;;;;;;;;138426;1264;22528;-82
2024/02/29 18:46:25;;;;;;;;;;;;;;;;;;138789;1264;22533;-82
2024/02/29 18:49:26;;;;;;;;;;;;;;;;;;138351;1264;22520;-83
2024/02/29 18:52:27;;;;;;;;;;;;;;;;;;138312;1260;22523;-81
2024/02/29 18:55:28;;;;;;;;;;;;;;;;;;138812;1264;22521;-80
2024/02/29 18:58:30;;;;;;;;;;;;;;;;;;138337;1264;22498;-81
2024/02/29 19:01:31;;;;;;;;;;;;;;;;;;138256;1264;22527;-81
2024/02/29 19:04:32;;;;;;;;;;;;;;;;;;139176;1264;22484;-81
2024/02/29 19:07:33;;;;;;;;;;;;;;;;;;138706;1264;22478;-80
2024/02/29 19:10:34;;;;;;;;;;;;;;;;;;138603;1263;22546;-78
2024/02/29 19:13:35;;;;;;;;;;;;;;;;;;139358;1264;22273;-78
2024/02/29 19:16:36;;;;;;;;;;;;;;;;;;139048;1264;22456;-80
2024/02/29 19:19:37;;;;;;;;;;;;;;;;;;138708;1264;22491;-80
2024/02/29 19:22:39;;;;;;;;;;;;;;;;;;139203;1264;22538;-80
2024/02/29 19:25:40;;;;;;;;;;;;;;;;;;138841;1264;22492;-80
2024/02/29 19:28:41;;;;;;;;;;;;;;;;;;138934;1264;22313;-80
2024/02/29 19:31:42;;;;;;;;;;;;;;;;;;138521;1264;24224;-80
2024/02/29 19:34:43;;;;;;;;;;;;;;;;;;138809;1264;22545;-80
2024/02/29 19:37:45;;;;;;;;;;;;;;;;;;138253;1264;22492;-79
2024/02/29 19:40:49;;;;;;;;;;;;;;;;;;138317;1264;22512;-81
2024/02/29 19:43:50;;;;;;;;;;;;;;;;;;138712;1264;22528;-81
2024/02/29 19:46:51;;;;;;;;;;;;;;;;;;138262;1264;22528;-81
2024/02/29 19:49:53;;;;;;;;;;;;;;;;;;138268;1264;22507;-81
2024/02/29 19:52:54;;;;;;;;;;;;;;;;;;138630;1264;22524;-82
2024/02/29 19:55:55;;;;;;;;;;;;;;;;;;138367;1264;22509;-79
2024/02/29 19:58:56;;;;;;;;;;;;;;;;;;138303;1264;23015;-79
2024/02/29 20:01:57;;;;;;;;;;;;;;;;;;138959;1264;22347;-81
2024/02/29 20:04:58;;;;;;;;;;;;;;;;;;138928;1264;22319;-80
2024/02/29 20:08:01;;;;;;;;;;;;;;;;;;138944;1264;22912;-79
2024/02/29 20:11:02;;;;;;;;;;;;;;;;;;138883;1264;22278;-81
2024/02/29 20:14:04;;;;;;;;;;;;;;;;;;138891;1264;22266;-79
2024/02/29 20:17:05;;;;;;;;;;;;;;;;;;138935;1264;22276;-80